createdAt,value
2017-05-25T04:46:26.335Z,74.22
2017-05-25T04:46:51.836Z,74.22
2017-05-25T04:47:17.307Z,74.51
2017-05-25T04:47:42.817Z,74.22
2017-05-25T04:48:08.289Z,73.94
2017-05-25T04:48:33.737Z,74.41
2017-05-25T04:48:59.214Z,74.22
2017-05-25T04:49:24.686Z,73.75
2017-05-25T04:49:50.197Z,73.75
2017-05-25T04:50:15.646Z,73.94
2017-05-25T04:50:41.126Z,73.65
2017-05-25T04:51:06.603Z,73.75
2017-05-25T04:51:32.065Z,73.65
2017-05-25T04:51:57.557Z,73.75
2017-05-25T04:52:23.022Z,74.32
2017-05-25T04:52:48.494Z,74.13
2017-05-25T04:53:13.957Z,74.13
2017-05-25T04:53:39.424Z,74.32
2017-05-25T04:54:04.896Z,74.13
2017-05-25T04:54:30.395Z,73.94
2017-05-25T04:54:55.882Z,74.04
2017-05-25T04:55:21.367Z,74.13
2017-05-25T04:55:46.845Z,74.13
2017-05-25T04:56:12.294Z,74.13
2017-05-25T04:56:37.803Z,74.32
2017-05-25T04:57:03.304Z,74.32
2017-05-25T04:57:28.782Z,74.22
2017-05-25T04:57:54.253Z,74.51
2017-05-25T04:58:19.725Z,74.51
2017-05-25T04:58:45.191Z,74.41
2017-05-25T04:59:10.685Z,74.13
2017-05-25T04:59:36.183Z,73.84
2017-05-25T05:00:01.653Z,74.22
2017-05-25T05:00:27.132Z,74.13
2017-05-25T05:00:52.600Z,73.84
2017-05-25T05:01:18.118Z,73.94
2017-05-25T05:01:43.585Z,73.94
2017-05-25T05:02:09.090Z,74.13
2017-05-25T05:02:34.553Z,74.13
2017-05-25T05:03:00.049Z,74.22
2017-05-25T05:03:25.503Z,74.04
2017-05-25T05:03:50.981Z,74.04
2017-05-25T05:04:16.464Z,73.65
2017-05-25T05:04:41.943Z,74.13
2017-05-25T05:05:07.415Z,73.84
2017-05-25T05:05:32.889Z,73.75
2017-05-25T05:05:58.383Z,74.04
2017-05-25T05:06:23.853Z,73.75
2017-05-25T05:06:49.339Z,73.84
2017-05-25T05:07:14.790Z,73.94
2017-05-25T05:07:40.246Z,73.75
2017-05-25T05:08:05.777Z,73.55
2017-05-25T05:08:31.309Z,73.75
2017-05-25T05:08:56.753Z,73.84
2017-05-25T05:09:22.208Z,74.04
2017-05-25T05:09:47.655Z,73.79
2017-05-25T05:10:13.157Z,74.13
2017-05-25T05:10:38.652Z,73.55
2017-05-25T05:11:04.144Z,73.65
2017-05-25T05:11:29.646Z,73.46
2017-05-25T05:11:55.121Z,73.79
2017-05-25T05:12:20.629Z,73.69
2017-05-25T05:12:46.150Z,73.02
2017-05-25T05:13:11.619Z,73.27
2017-05-25T05:13:37.131Z,73.4
2017-05-25T05:14:02.603Z,73.69
2017-05-25T05:14:28.074Z,73.55
2017-05-25T05:14:53.602Z,73.3
2017-05-25T05:15:19.058Z,73.36
2017-05-25T05:15:44.533Z,73.27
2017-05-25T05:16:10.006Z,73.27
2017-05-25T05:16:35.497Z,73.79
2017-05-25T05:17:00.948Z,73.46
2017-05-25T05:17:26.501Z,73.75
2017-05-25T05:17:51.960Z,73.75
2017-05-25T05:18:17.451Z,73.75
2017-05-25T05:18:42.913Z,73.75
2017-05-25T05:19:08.416Z,73.36
2017-05-25T05:19:33.899Z,73.55
2017-05-25T05:19:59.361Z,73.08
2017-05-25T05:20:24.821Z,73.36
2017-05-25T05:20:50.306Z,73.36
2017-05-25T05:21:15.771Z,73.27
2017-05-25T05:21:41.269Z,73.17
2017-05-25T05:22:06.739Z,73.46
2017-05-25T05:22:32.240Z,73.36
2017-05-25T05:22:57.699Z,73.4
2017-05-25T05:23:23.170Z,72.98
2017-05-25T05:23:48.605Z,73.69
2017-05-25T05:24:14.099Z,73.75
2017-05-25T05:24:39.582Z,73.36
2017-05-25T05:25:05.045Z,73.21
2017-05-25T05:25:30.532Z,73.36
2017-05-25T05:25:56.002Z,73.02
2017-05-25T05:26:21.469Z,73.79
2017-05-25T05:26:46.998Z,73.75
2017-05-25T05:27:12.466Z,73.46
2017-05-25T05:27:37.950Z,73.27
2017-05-25T05:28:03.447Z,73.27
2017-05-25T05:28:28.913Z,72.98
2017-05-25T05:28:54.438Z,73.55
2017-05-25T05:29:19.926Z,73.46
2017-05-25T05:29:45.409Z,73.79
2017-05-25T05:30:10.915Z,73.65
2017-05-25T05:30:36.435Z,73.79
2017-05-25T05:31:01.910Z,73.46
2017-05-25T05:31:27.398Z,73.21
2017-05-25T05:31:52.881Z,73.27
2017-05-25T05:32:18.347Z,73.3
2017-05-25T05:32:43.828Z,73.3
2017-05-25T05:33:09.319Z,73.02
2017-05-25T05:33:34.807Z,73.21
2017-05-25T05:34:00.286Z,73.4
2017-05-25T05:34:25.752Z,73.4
2017-05-25T05:34:51.218Z,73.11
2017-05-25T05:35:16.703Z,73.11
2017-05-25T05:35:42.205Z,73.21
2017-05-25T05:36:07.711Z,73.02
2017-05-25T05:36:33.175Z,73.11
2017-05-25T05:36:58.656Z,73.5
2017-05-25T05:37:24.158Z,73.4
2017-05-25T05:37:49.649Z,72.73
2017-05-25T05:38:15.141Z,73.02
2017-05-25T05:38:40.614Z,73.3
2017-05-25T05:39:06.084Z,72.44
2017-05-25T05:39:31.547Z,72.63
2017-05-25T05:39:57.037Z,72.73
2017-05-25T05:40:22.531Z,72.54
2017-05-25T05:40:48.022Z,72.73
2017-05-25T05:41:13.485Z,72.63
2017-05-25T05:41:38.977Z,72.83
2017-05-25T05:42:04.474Z,72.73
2017-05-25T05:42:29.998Z,72.63
2017-05-25T05:42:55.472Z,72.54
2017-05-25T05:43:20.984Z,72.73
2017-05-25T05:43:46.461Z,72.73
2017-05-25T05:44:11.962Z,72.73
2017-05-25T05:44:37.433Z,72.63
2017-05-25T05:45:02.909Z,72.73
2017-05-25T05:45:28.372Z,72.92
2017-05-25T05:45:53.861Z,72.73
2017-05-25T05:46:19.348Z,72.83
2017-05-25T05:46:44.822Z,72.83
2017-05-25T05:47:10.307Z,72.83
2017-05-25T05:47:35.836Z,72.83
2017-05-25T05:48:01.282Z,72.83
2017-05-25T05:48:26.762Z,72.44
2017-05-25T05:48:52.265Z,72.34
2017-05-25T05:49:17.752Z,72.34
2017-05-25T05:49:43.292Z,72.34
2017-05-25T05:50:08.769Z,72.34
2017-05-25T05:50:34.254Z,72.63
2017-05-25T05:50:59.721Z,72.63
2017-05-25T05:51:25.211Z,72.54
2017-05-25T05:51:50.705Z,72.16
2017-05-25T05:52:16.232Z,72.73
2017-05-25T05:52:41.693Z,72.54
2017-05-25T05:53:07.187Z,72.54
2017-05-25T05:53:32.660Z,72.34
2017-05-25T05:53:58.160Z,72.34
2017-05-25T05:54:23.640Z,72.34
2017-05-25T05:54:49.146Z,71.68
2017-05-25T05:55:14.616Z,71.87
2017-05-25T05:55:40.093Z,71.58
2017-05-25T05:56:05.579Z,71.58
2017-05-25T05:56:31.058Z,71.62
2017-05-25T05:56:56.550Z,71.91
2017-05-25T05:57:22.036Z,71.48
2017-05-25T05:57:47.493Z,71.52
2017-05-25T05:58:12.940Z,71.23
2017-05-25T05:58:38.382Z,71.14
2017-05-25T05:59:03.913Z,71.14
2017-05-25T05:59:29.397Z,71.01
2017-05-25T05:59:54.866Z,70.66
2017-05-25T06:00:20.363Z,70.66
2017-05-25T06:00:45.845Z,70.37
2017-05-25T06:01:11.313Z,70.66
2017-05-25T06:01:36.796Z,70.09
2017-05-25T06:02:02.290Z,70.28
2017-05-25T06:02:27.741Z,70.47
2017-05-25T06:02:53.256Z,70.37
2017-05-25T06:03:18.769Z,70.47
2017-05-25T06:03:44.260Z,70.09
2017-05-25T06:04:09.733Z,70.37
2017-05-25T06:04:35.184Z,70.56
2017-05-25T06:05:00.632Z,70.18
2017-05-25T06:05:26.118Z,70.28
2017-05-25T06:05:51.635Z,70.47
2017-05-25T06:06:17.117Z,70.37
2017-05-25T06:06:42.600Z,70.09
2017-05-25T06:07:08.077Z,69.6
2017-05-25T06:07:33.557Z,69.51
2017-05-25T06:07:59.058Z,69.7
2017-05-25T06:08:24.521Z,69.7
2017-05-25T06:08:50.024Z,69.03
2017-05-25T06:09:15.514Z,69.32
2017-05-25T06:09:40.963Z,69.51
2017-05-25T06:10:06.545Z,69.13
2017-05-25T06:10:32.028Z,69.35
2017-05-25T06:10:57.604Z,69.13
2017-05-25T06:11:23.077Z,69.26
2017-05-25T06:11:48.561Z,69.45
2017-05-25T06:12:14.076Z,69.64
2017-05-25T06:12:39.633Z,69.26
2017-05-25T06:13:05.090Z,68.97
2017-05-25T06:13:30.564Z,69.01
2017-05-25T06:13:56.083Z,68.43
2017-05-25T06:14:21.680Z,68.52
2017-05-25T06:15:29.891Z,68.52
2017-05-25T06:15:55.378Z,67.66
2017-05-25T06:16:20.888Z,67.66
2017-05-25T06:16:46.531Z,67.85
2017-05-25T06:17:11.892Z,67.5
2017-05-25T06:17:37.373Z,67.47
2017-05-25T06:18:02.861Z,67.09
2017-05-25T06:18:28.372Z,67.12
2017-05-25T06:18:53.827Z,66.83
2017-05-25T06:19:19.343Z,66.35
2017-05-25T06:19:44.808Z,66.64
2017-05-25T06:20:10.304Z,66.55
2017-05-25T06:20:35.807Z,66.64
2017-05-25T06:21:01.286Z,66.64
2017-05-25T06:21:26.892Z,66.74
2017-05-25T06:21:52.249Z,66.45
2017-05-25T06:22:17.732Z,66.16
2017-05-25T06:22:43.189Z,66.35
2017-05-25T06:23:08.650Z,66.16
2017-05-25T06:23:34.288Z,65.88
2017-05-25T06:23:59.806Z,66.16
2017-05-25T06:24:25.469Z,65.78
2017-05-25T06:24:50.987Z,66.06
2017-05-25T06:25:16.847Z,66.26
2017-05-25T06:25:42.310Z,66.16
2017-05-25T06:26:07.775Z,66.26
2017-05-25T06:26:33.279Z,66.22
2017-05-25T06:26:58.721Z,66.13
2017-05-25T06:27:24.230Z,66.22
2017-05-25T06:27:49.758Z,66.32
2017-05-25T06:28:15.216Z,66.22
2017-05-25T06:28:40.711Z,66.32
2017-05-25T06:29:06.201Z,65.75
2017-05-25T06:29:31.684Z,66.32
2017-05-25T06:29:57.282Z,66.22
2017-05-25T06:30:22.758Z,66.32
2017-05-25T06:30:48.262Z,66.03
2017-05-25T06:31:13.715Z,66.22
2017-05-25T06:31:39.171Z,66.42
2017-05-25T06:32:04.650Z,66.8
2017-05-25T06:32:30.119Z,66.8
2017-05-25T06:32:55.594Z,66.22
2017-05-25T06:33:21.042Z,66.42
2017-05-25T06:33:46.543Z,66.51
2017-05-25T06:34:12.022Z,66.42
2017-05-25T06:34:37.505Z,66.22
2017-05-25T06:35:03.015Z,66.32
2017-05-25T06:35:28.479Z,66.89
2017-05-25T06:35:53.956Z,66.51
2017-05-25T06:36:19.416Z,66.51
2017-05-25T06:36:44.872Z,66.35
2017-05-25T06:37:10.353Z,66.16
2017-05-25T06:37:35.883Z,66.35
2017-05-25T06:38:01.359Z,66.06
2017-05-25T06:38:26.860Z,65.88
2017-05-25T06:38:52.358Z,65.49
2017-05-25T06:39:17.859Z,65.39
2017-05-25T06:39:43.306Z,65.78
2017-05-25T06:40:08.777Z,66
2017-05-25T06:40:34.247Z,65.62
2017-05-25T06:40:59.704Z,65.43
2017-05-25T06:41:25.201Z,64.76
2017-05-25T06:41:50.690Z,64.95
2017-05-25T06:42:16.195Z,65.23
2017-05-25T06:42:41.702Z,64.59
2017-05-25T06:43:07.166Z,64.4
2017-05-25T06:43:32.635Z,64.12
2017-05-25T06:43:58.099Z,63.64
2017-05-25T06:44:23.580Z,64.02
2017-05-25T06:44:49.034Z,63.64
2017-05-25T06:45:14.518Z,63.25
2017-05-25T06:45:39.980Z,62.81
2017-05-25T06:46:05.456Z,62.9
2017-05-25T06:46:30.917Z,62.32
2017-05-25T06:46:56.411Z,62.32
2017-05-25T06:47:21.876Z,62.13
2017-05-25T06:47:47.394Z,62.23
2017-05-25T06:48:13.069Z,61.65
2017-05-25T06:48:38.503Z,61.27
2017-05-25T06:49:04.017Z,61.08
2017-05-25T06:49:29.483Z,61.55
2017-05-25T06:49:54.948Z,61.08
2017-05-25T06:50:20.390Z,60.98
2017-05-25T06:50:45.860Z,61.08
2017-05-25T06:51:11.341Z,60.78
2017-05-25T06:51:36.804Z,60.98
2017-05-25T06:52:02.272Z,60.78
2017-05-25T06:52:27.743Z,60.82
2017-05-25T06:52:53.213Z,61.11
2017-05-25T06:53:18.726Z,60.6
2017-05-25T06:53:44.195Z,60.53
2017-05-25T06:54:09.658Z,60.43
2017-05-25T06:54:35.173Z,60.11
2017-05-25T06:55:00.628Z,60.05
2017-05-25T06:55:26.119Z,60.24
2017-05-25T06:55:51.600Z,60.4
2017-05-25T06:56:17.074Z,60.11
2017-05-25T06:56:42.535Z,60.11
2017-05-25T06:57:08.010Z,60.11
2017-05-25T06:57:33.514Z,60.11
2017-05-25T06:57:58.981Z,60.11
2017-05-25T06:58:24.466Z,59.73
2017-05-25T06:58:49.930Z,59.64
2017-05-25T06:59:15.391Z,59.92
2017-05-25T06:59:40.871Z,60.02
2017-05-25T07:00:06.359Z,59.73
2017-05-25T07:00:31.858Z,59.73
2017-05-25T07:00:57.311Z,60.28
2017-05-25T07:01:22.802Z,60.38
2017-05-25T07:01:48.278Z,60.18
2017-05-25T07:02:13.730Z,59.99
2017-05-25T07:02:39.203Z,60.47
2017-05-25T07:03:04.699Z,60.47
2017-05-25T07:03:30.174Z,60.95
2017-05-25T07:03:55.672Z,60.95
2017-05-25T07:04:21.162Z,60.75
2017-05-25T07:04:46.629Z,61.43
2017-05-25T07:05:12.101Z,61.62
2017-05-25T07:05:37.573Z,61.24
2017-05-25T07:06:03.064Z,61.05
2017-05-25T07:06:28.533Z,61.52
2017-05-25T07:06:54.007Z,61.43
2017-05-25T07:07:19.456Z,61.46
2017-05-25T07:07:44.955Z,61.36
2017-05-25T07:08:10.430Z,61.17
2017-05-25T07:08:35.897Z,60.88
2017-05-25T07:09:01.386Z,60.88
2017-05-25T07:09:26.891Z,60.98
2017-05-25T07:09:52.397Z,61.17
2017-05-25T07:10:17.940Z,60.69
2017-05-25T07:10:43.403Z,60.69
2017-05-25T07:11:08.880Z,60.4
2017-05-25T07:11:34.367Z,60.31
2017-05-25T07:11:59.849Z,60.24
2017-05-25T07:12:25.372Z,60.24
2017-05-25T07:12:50.849Z,60.34
2017-05-25T07:13:16.373Z,59.86
2017-05-25T07:13:41.853Z,59.57
2017-05-25T07:14:07.364Z,59.95
2017-05-25T07:14:32.830Z,59.86
2017-05-25T07:14:58.290Z,60.05
2017-05-25T07:15:23.763Z,59.86
2017-05-25T07:15:49.241Z,60.05
2017-05-25T07:16:14.707Z,59.5
2017-05-25T07:16:40.177Z,59.5
2017-05-25T07:17:05.632Z,59.02
2017-05-25T07:17:31.106Z,59.12
2017-05-25T07:17:56.597Z,58.92
2017-05-25T07:18:22.093Z,58.83
2017-05-25T07:18:47.586Z,58.45
2017-05-25T07:19:13.042Z,58.45
2017-05-25T07:19:38.505Z,58.57
2017-05-25T07:20:04.013Z,58.37
2017-05-25T07:20:29.521Z,58.28
2017-05-25T07:20:55.008Z,57.8
2017-05-25T07:21:20.526Z,57.6
2017-05-25T07:21:45.996Z,57.32
2017-05-25T07:22:11.613Z,57.22
2017-05-25T07:22:37.105Z,57.22
2017-05-25T07:23:02.570Z,56.84
2017-05-25T07:23:28.088Z,56.71
2017-05-25T07:23:53.560Z,56.81
2017-05-25T07:24:19.065Z,56.43
2017-05-25T07:24:44.620Z,56.71
2017-05-25T07:25:10.080Z,56.81
2017-05-25T07:25:35.538Z,57.2
2017-05-25T07:26:01.022Z,57.1
2017-05-25T07:26:26.526Z,57
2017-05-25T07:26:52.023Z,57.39
2017-05-25T07:27:17.491Z,57.29
2017-05-25T07:27:42.970Z,57.36
2017-05-25T07:28:08.443Z,57.84
2017-05-25T07:28:33.907Z,58.03
2017-05-25T07:28:59.381Z,57.65
2017-05-25T07:29:24.840Z,58.22
2017-05-25T07:29:50.341Z,58.13
2017-05-25T07:30:15.802Z,58.13
2017-05-25T07:30:41.275Z,58.22
2017-05-25T07:31:06.759Z,58.32
2017-05-25T07:31:32.268Z,58.51
2017-05-25T07:31:57.783Z,58.32
2017-05-25T07:32:23.230Z,58.61
2017-05-25T07:32:48.706Z,58.89
2017-05-25T07:33:14.152Z,58.99
2017-05-25T07:33:39.645Z,58.89
2017-05-25T07:34:05.131Z,58.7
2017-05-25T07:34:30.627Z,58.61
2017-05-25T07:34:56.065Z,58.54
2017-05-25T07:35:21.536Z,58.92
2017-05-25T07:35:47.005Z,58.35
2017-05-25T07:36:12.575Z,58.15
2017-05-25T07:36:38.018Z,57.29
2017-05-25T07:37:03.492Z,57.48
2017-05-25T07:37:28.974Z,57.39
2017-05-25T07:37:54.467Z,57.29
2017-05-25T07:38:20.065Z,57.39
2017-05-25T07:38:45.470Z,57.2
2017-05-25T07:39:10.959Z,57.29
2017-05-25T07:39:36.457Z,57.51
2017-05-25T07:40:01.931Z,57.51
2017-05-25T07:40:27.399Z,57.51
2017-05-25T07:40:52.901Z,57.8
2017-05-25T07:41:18.399Z,57.03
2017-05-25T07:41:43.913Z,56.65
2017-05-25T07:42:09.375Z,56.67
2017-05-25T07:42:34.865Z,56.48
2017-05-25T07:43:00.347Z,56.2
2017-05-25T07:43:25.848Z,56.29
2017-05-25T07:43:51.316Z,56.32
2017-05-25T07:44:16.793Z,55.93
2017-05-25T07:44:42.245Z,56.03
2017-05-25T07:45:07.729Z,55.55
2017-05-25T07:45:33.221Z,55.07
2017-05-25T07:45:58.674Z,55.35
2017-05-25T07:46:24.155Z,55.16
2017-05-25T07:46:49.650Z,55.07
2017-05-25T07:47:15.158Z,54.71
2017-05-25T07:47:40.642Z,54.78
2017-05-25T07:48:06.198Z,54.97
2017-05-25T07:48:31.678Z,54.58
2017-05-25T07:48:57.175Z,54.49
2017-05-25T07:49:22.669Z,54.39
2017-05-25T07:49:48.128Z,54.49
2017-05-25T07:50:13.580Z,54.49
2017-05-25T07:50:39.094Z,54.58
2017-05-25T07:51:04.566Z,54.8
2017-05-25T07:51:30.048Z,54.58
2017-05-25T07:51:55.555Z,54.32
2017-05-25T07:52:21.030Z,53.91
2017-05-25T07:52:46.549Z,53.72
2017-05-25T07:53:12.043Z,53.94
2017-05-25T07:53:37.525Z,53.65
2017-05-25T07:54:03.009Z,54.03
2017-05-25T07:54:28.507Z,53.84
2017-05-25T07:54:53.956Z,53.94
2017-05-25T07:55:19.427Z,53.74
2017-05-25T07:55:44.931Z,53.65
2017-05-25T07:56:10.389Z,54.03
2017-05-25T07:56:35.856Z,53.94
2017-05-25T07:57:01.350Z,53.74
2017-05-25T07:57:26.849Z,53.72
2017-05-25T07:57:52.329Z,54
2017-05-25T07:58:17.837Z,54
2017-05-25T07:58:43.316Z,54
2017-05-25T07:59:08.810Z,54.3
2017-05-25T07:59:34.283Z,54.49
2017-05-25T07:59:59.763Z,54.39
2017-05-25T08:00:25.249Z,54.39
2017-05-25T08:00:50.694Z,54.39
2017-05-25T08:01:16.155Z,54.49
2017-05-25T08:01:41.636Z,54.3
2017-05-25T08:02:07.134Z,54.49
2017-05-25T08:02:32.610Z,54.65
2017-05-25T08:02:58.087Z,54.58
2017-05-25T08:03:23.551Z,54.58
2017-05-25T08:03:49.022Z,54.85
2017-05-25T08:04:14.510Z,54.65
2017-05-25T08:04:39.976Z,54.65
2017-05-25T08:05:05.439Z,54.65
2017-05-25T08:05:30.939Z,54.85
2017-05-25T08:05:56.416Z,55.13
2017-05-25T08:06:21.896Z,55.43
2017-05-25T08:06:47.381Z,54.94
2017-05-25T08:07:12.852Z,55.33
2017-05-25T08:07:38.338Z,55.62
2017-05-25T08:08:03.798Z,55.78
2017-05-25T08:08:29.316Z,55.88
2017-05-25T08:08:54.787Z,55.78
2017-05-25T08:09:20.245Z,56.07
2017-05-25T08:09:45.734Z,55.33
2017-05-25T08:10:11.212Z,56.1
2017-05-25T08:10:36.718Z,55.9
2017-05-25T08:11:02.247Z,55.9
2017-05-25T08:11:27.729Z,55.43
2017-05-25T08:11:53.248Z,55.9
2017-05-25T08:12:18.685Z,55.9
2017-05-25T08:12:44.183Z,55.62
2017-05-25T08:13:09.678Z,56.1
2017-05-25T08:13:35.152Z,56
2017-05-25T08:14:00.614Z,55.71
2017-05-25T08:14:26.090Z,55.23
2017-05-25T08:14:51.610Z,54.65
2017-05-25T08:15:17.086Z,54.56
2017-05-25T08:15:42.585Z,54.78
2017-05-25T08:16:08.057Z,54.94
2017-05-25T08:16:33.532Z,54.58
2017-05-25T08:16:59.058Z,54.78
2017-05-25T08:17:24.487Z,54.78
2017-05-25T08:17:49.967Z,53.81
2017-05-25T08:18:15.415Z,54
2017-05-25T08:18:40.894Z,54.2
2017-05-25T08:19:06.397Z,54.1
2017-05-25T08:19:31.872Z,54.49
2017-05-25T08:19:57.344Z,54.68
2017-05-25T08:20:22.841Z,54.1
2017-05-25T08:20:48.353Z,53.62
2017-05-25T08:21:13.857Z,53.33
2017-05-25T08:21:39.327Z,53.23
2017-05-25T08:22:04.813Z,53.72
2017-05-25T08:22:30.290Z,53.81
2017-05-25T08:22:55.762Z,54.1
2017-05-25T08:23:21.255Z,54.1
2017-05-25T08:23:46.741Z,54.13
2017-05-25T08:24:12.225Z,53.94
2017-05-25T08:24:37.722Z,53.55
2017-05-25T08:25:03.208Z,53.27
2017-05-25T08:25:28.692Z,52.91
2017-05-25T08:25:54.169Z,52.78
2017-05-25T08:26:19.644Z,52.13
2017-05-25T08:26:45.101Z,51.94
2017-05-25T08:27:10.581Z,51.65
2017-05-25T08:27:36.092Z,51.56
2017-05-25T08:28:01.589Z,51.36
2017-05-25T08:28:27.057Z,51.36
2017-05-25T08:28:52.537Z,50.81
2017-05-25T08:29:18.016Z,50.71
2017-05-25T08:29:43.493Z,50.52
2017-05-25T08:30:09.024Z,50.23
2017-05-25T08:30:34.533Z,50.23
2017-05-25T08:30:59.971Z,51
2017-05-25T08:31:25.453Z,50.32
2017-05-25T08:31:50.920Z,50.42
2017-05-25T08:32:16.402Z,50.42
2017-05-25T08:32:41.895Z,50.42
2017-05-25T08:33:07.398Z,50.32
2017-05-25T08:33:32.883Z,50.32
2017-05-25T08:33:58.356Z,50.42
2017-05-25T08:34:23.840Z,50.13
2017-05-25T08:34:49.342Z,50.52
2017-05-25T08:35:14.878Z,50.4
2017-05-25T08:35:40.321Z,50.49
2017-05-25T08:36:05.808Z,50.88
2017-05-25T08:36:31.322Z,50.3
2017-05-25T08:36:56.783Z,50.78
2017-05-25T08:37:22.270Z,50.69
2017-05-25T08:37:47.768Z,51.07
2017-05-25T08:38:13.299Z,50.98
2017-05-25T08:38:38.756Z,51.46
2017-05-25T08:39:04.250Z,51.56
2017-05-25T08:39:29.736Z,51.14
2017-05-25T08:39:55.257Z,51.56
2017-05-25T08:40:20.708Z,51.46
2017-05-25T08:40:46.208Z,52.04
2017-05-25T08:41:11.654Z,51.94
2017-05-25T08:41:37.140Z,51.84
2017-05-25T08:42:02.578Z,51.56
2017-05-25T08:42:28.089Z,50.78
2017-05-25T08:42:53.559Z,50.98
2017-05-25T08:43:19.062Z,51.36
2017-05-25T08:43:44.562Z,50.69
2017-05-25T08:44:10.048Z,51.46
2017-05-25T08:44:35.538Z,50.98
2017-05-25T08:45:01.044Z,50.69
2017-05-25T08:45:26.498Z,50.78
2017-05-25T08:45:51.975Z,50.88
2017-05-25T08:46:17.475Z,51.07
2017-05-25T08:46:43.022Z,51.26
2017-05-25T08:47:08.463Z,51.17
2017-05-25T08:47:33.899Z,50.88
2017-05-25T08:47:59.369Z,50.49
2017-05-25T08:48:24.877Z,50.4
2017-05-25T08:48:50.352Z,50.4
2017-05-25T08:49:15.857Z,50.4
2017-05-25T08:49:41.342Z,50.21
2017-05-25T08:50:06.855Z,50.21
2017-05-25T08:50:32.322Z,49.91
2017-05-25T08:50:57.785Z,49.82
2017-05-25T08:51:23.231Z,50.01
2017-05-25T08:51:48.696Z,49.84
2017-05-25T08:52:14.197Z,49.84
2017-05-25T08:52:39.674Z,49.84
2017-05-25T08:53:05.169Z,49.94
2017-05-25T08:53:30.624Z,49.94
2017-05-25T08:53:56.078Z,50.04
2017-05-25T08:54:21.544Z,49.75
2017-05-25T08:54:47.024Z,49.84
2017-05-25T08:55:12.524Z,49.94
2017-05-25T08:55:38.012Z,49.65
2017-05-25T08:56:03.525Z,49.07
2017-05-25T08:56:29.037Z,49.07
2017-05-25T08:56:54.540Z,49.17
2017-05-25T08:57:20.000Z,49.27
2017-05-25T08:57:45.511Z,49.55
2017-05-25T08:58:10.972Z,49.37
2017-05-25T08:58:36.457Z,49.27
2017-05-25T08:59:01.970Z,49.27
2017-05-25T08:59:27.477Z,49.27
2017-05-25T08:59:52.956Z,49.27
2017-05-25T09:00:18.465Z,49.17
2017-05-25T09:00:43.963Z,49.46
2017-05-25T09:01:09.451Z,50.13
2017-05-25T09:01:34.925Z,49.75
2017-05-25T09:02:00.467Z,49.27
2017-05-25T09:02:25.984Z,48.71
2017-05-25T09:02:51.462Z,48.61
2017-05-25T09:03:16.966Z,48.61
2017-05-25T09:03:42.541Z,48.13
2017-05-25T09:04:08.064Z,48.13
2017-05-25T09:04:33.514Z,48.23
2017-05-25T09:04:58.990Z,47.85
2017-05-25T09:05:24.482Z,48.13
2017-05-25T09:05:49.998Z,48.03
2017-05-25T09:06:15.519Z,47.85
2017-05-25T09:06:41.003Z,47.94
2017-05-25T09:07:06.527Z,47.65
2017-05-25T09:07:31.997Z,47.48
2017-05-25T09:07:57.554Z,47.58
2017-05-25T09:08:23.043Z,47.29
2017-05-25T09:08:48.536Z,48.06
2017-05-25T09:09:14.007Z,47.96
2017-05-25T09:09:39.488Z,47.96
2017-05-25T09:10:05.102Z,48.16
2017-05-25T09:10:30.522Z,47.87
2017-05-25T09:10:55.995Z,47.96
2017-05-25T09:11:21.458Z,47.77
2017-05-25T09:11:46.990Z,48.06
2017-05-25T09:12:12.477Z,48.06
2017-05-25T09:12:37.980Z,47.87
2017-05-25T09:13:03.470Z,47.96
2017-05-25T09:13:28.957Z,47.77
2017-05-25T09:13:54.486Z,48.06
2017-05-25T09:14:19.981Z,47.87
2017-05-25T09:14:45.457Z,47.87
2017-05-25T09:15:10.949Z,47.67
2017-05-25T09:15:36.433Z,48.08
2017-05-25T09:16:01.906Z,48.28
2017-05-25T09:16:27.433Z,47.89
2017-05-25T09:16:52.910Z,47.8
2017-05-25T09:17:18.366Z,47.7
2017-05-25T09:17:43.837Z,47.6
2017-05-25T09:18:09.316Z,47.5
2017-05-25T09:18:34.843Z,47.6
2017-05-25T09:19:00.341Z,46.92
2017-05-25T09:19:25.857Z,47.22
2017-05-25T09:19:51.428Z,47.12
2017-05-25T09:20:16.971Z,46.83
2017-05-25T09:20:42.495Z,47.14
2017-05-25T09:21:08.011Z,47.22
2017-05-25T09:21:33.453Z,46.92
2017-05-25T09:21:58.913Z,46.92
2017-05-25T09:22:24.413Z,46.64
2017-05-25T09:22:49.898Z,46.73
2017-05-25T09:23:15.389Z,46.73
2017-05-25T09:23:40.918Z,47.12
2017-05-25T09:24:06.374Z,47.02
2017-05-25T09:24:31.834Z,46.15
2017-05-25T09:24:57.355Z,46.54
2017-05-25T09:25:22.820Z,46.83
2017-05-25T09:25:48.336Z,47.02
2017-05-25T09:26:13.860Z,47.12
2017-05-25T09:26:39.359Z,47.12
2017-05-25T09:27:04.855Z,46.34
2017-05-25T09:27:30.323Z,46.34
2017-05-25T09:27:55.798Z,46.54
2017-05-25T09:28:21.302Z,46.54
2017-05-25T09:28:46.800Z,46.64
2017-05-25T09:29:12.285Z,46.56
2017-05-25T09:29:37.756Z,45.96
2017-05-25T09:30:03.237Z,46.25
2017-05-25T09:30:28.752Z,46.25
2017-05-25T09:30:54.233Z,46.34
2017-05-25T09:31:19.740Z,46.25
2017-05-25T09:31:45.272Z,46.25
2017-05-25T09:32:10.784Z,46.15
2017-05-25T09:32:36.252Z,46.25
2017-05-25T09:33:01.736Z,46.25
2017-05-25T09:33:27.199Z,46.54
2017-05-25T09:33:52.741Z,46.15
2017-05-25T09:34:18.227Z,46.25
2017-05-25T09:34:43.677Z,46.34
2017-05-25T09:35:09.195Z,46.54
2017-05-25T09:35:34.662Z,46.44
2017-05-25T09:36:00.144Z,46.33
2017-05-25T09:36:25.612Z,47.29
2017-05-25T09:36:51.096Z,46.9
2017-05-25T09:37:16.580Z,46.13
2017-05-25T09:37:42.062Z,46.33
2017-05-25T09:38:07.558Z,46.13
2017-05-25T09:38:33.118Z,46.23
2017-05-25T09:38:58.589Z,46.71
2017-05-25T09:39:24.085Z,45.94
2017-05-25T09:39:49.548Z,46.51
2017-05-25T09:40:15.029Z,46.51
2017-05-25T09:40:40.497Z,47.09
2017-05-25T09:41:05.988Z,46.9
2017-05-25T09:41:31.497Z,46.9
2017-05-25T09:41:56.992Z,47
2017-05-25T09:42:22.471Z,46.51
2017-05-25T09:42:47.983Z,45.65
2017-05-25T09:43:13.432Z,46.23
2017-05-25T09:43:38.913Z,46.51
2017-05-25T09:44:04.398Z,45.94
2017-05-25T09:44:29.872Z,46.42
2017-05-25T09:44:55.332Z,45.65
2017-05-25T09:45:20.847Z,46.03
2017-05-25T09:45:46.359Z,46.23
2017-05-25T09:46:11.818Z,46.13
2017-05-25T09:46:37.301Z,45.84
2017-05-25T09:47:02.757Z,45.94
2017-05-25T09:47:28.224Z,46.03
2017-05-25T09:47:53.693Z,46.03
2017-05-25T09:48:19.180Z,45.86
2017-05-25T09:48:44.648Z,45.57
2017-05-25T09:49:10.128Z,45.57
2017-05-25T09:49:35.587Z,45.57
2017-05-25T09:50:01.101Z,45.67
2017-05-25T09:50:26.561Z,45.65
2017-05-25T09:50:52.074Z,45.65
2017-05-25T09:51:17.539Z,45.65
2017-05-25T09:51:43.014Z,45.65
2017-05-25T09:52:08.517Z,45.55
2017-05-25T09:52:34.032Z,45.84
2017-05-25T09:52:59.540Z,45.26
2017-05-25T09:53:25.042Z,45.36
2017-05-25T09:53:50.526Z,44.97
2017-05-25T09:54:16.019Z,45.07
2017-05-25T09:54:41.572Z,44.97
2017-05-25T09:55:07.072Z,44.87
2017-05-25T09:55:32.563Z,44.78
2017-05-25T09:55:58.060Z,45.07
2017-05-25T09:56:23.586Z,45.07
2017-05-25T09:56:49.093Z,44.97
2017-05-25T09:57:14.549Z,45.45
2017-05-25T09:57:40.051Z,45.55
2017-05-25T09:58:05.539Z,45.45
2017-05-25T09:58:31.006Z,45.26
2017-05-25T09:58:56.507Z,45.55
2017-05-25T09:59:21.970Z,45.75
2017-05-25T09:59:47.456Z,44.87
2017-05-25T10:00:13.001Z,45.07
2017-05-25T10:00:38.465Z,45.07
2017-05-25T10:01:03.967Z,45.26
2017-05-25T10:01:29.419Z,45.45
2017-05-25T10:01:54.886Z,45.75
2017-05-25T10:02:20.399Z,45.75
2017-05-25T10:02:45.850Z,45.45
2017-05-25T10:03:11.376Z,45.36
2017-05-25T10:03:36.871Z,45.17
2017-05-25T10:04:02.334Z,45.17
2017-05-25T10:04:27.843Z,45.36
2017-05-25T10:04:53.333Z,45.36
2017-05-25T10:05:18.788Z,44.97
2017-05-25T10:05:44.296Z,44.78
2017-05-25T10:06:09.821Z,44.29
2017-05-25T10:06:35.355Z,44.68
2017-05-25T10:07:01.027Z,44.29
2017-05-25T10:07:26.537Z,44.59
2017-05-25T10:07:52.073Z,44.97
2017-05-25T10:08:17.617Z,45.53
2017-05-25T10:08:43.142Z,45.14
2017-05-25T10:09:08.563Z,45.34
2017-05-25T10:09:34.110Z,45.34
2017-05-25T10:09:59.557Z,45.43
2017-05-25T10:10:25.025Z,45.34
2017-05-25T10:10:50.515Z,45.24
2017-05-25T10:11:15.988Z,45.55
2017-05-25T10:11:41.459Z,46.11
2017-05-25T10:12:06.970Z,46.01
2017-05-25T10:12:32.422Z,46.49
2017-05-25T10:12:57.931Z,46.33
2017-05-25T10:13:23.398Z,46.23
2017-05-25T10:13:48.906Z,46.23
2017-05-25T10:14:14.357Z,46.13
2017-05-25T10:14:39.864Z,46.13
2017-05-25T10:15:05.330Z,45.65
2017-05-25T10:15:30.792Z,45.36
2017-05-25T10:15:56.281Z,45.55
2017-05-25T10:16:21.758Z,45.45